createdAt,value
2018-08-24T00:01:07.259Z,12.67
2018-08-24T00:06:15.931Z,13.07
2018-08-24T00:11:25.283Z,12.93
2018-08-24T00:16:34.101Z,14.27
2018-08-24T00:21:43.612Z,13.63
2018-08-24T00:26:52.518Z,14.77
2018-08-24T00:32:01.909Z,14.00
2018-08-24T00:37:10.911Z,14.37
2018-08-24T00:42:20.071Z,16.07
2018-08-24T00:47:29.174Z,17.40
2018-08-24T00:52:38.395Z,17.07
2018-08-24T00:57:47.532Z,18.07
2018-08-24T01:02:57.088Z,18.43
2018-08-24T01:08:06.760Z,17.20
2018-08-24T01:13:16.004Z,22.20
2018-08-24T01:18:25.355Z,21.90
2018-08-24T01:23:34.163Z,22.13
2018-08-24T01:28:43.661Z,22.23
2018-08-24T01:33:52.519Z,25.93
2018-08-24T01:39:01.623Z,27.93
2018-08-24T01:44:11.157Z,28.97
2018-08-24T01:49:20.029Z,41.60
2018-08-24T01:54:29.325Z,42.63
2018-08-24T01:59:38.500Z,44.67
2018-08-24T02:04:48.119Z,46.93
2018-08-24T02:09:57.376Z,52.10
2018-08-24T02:15:06.457Z,49.17
2018-08-24T02:20:15.909Z,49.57
2018-08-24T02:25:25.962Z,48.67
2018-08-24T02:30:34.923Z,59.80
2018-08-24T02:35:44.526Z,53.20
2018-08-24T02:40:54.065Z,64.13
2018-08-24T02:46:03.441Z,67.73
2018-08-24T02:51:12.164Z,68.93
2018-08-24T02:56:21.584Z,61.30
2018-08-24T03:01:31.014Z,59.17
2018-08-24T03:06:39.721Z,63.63
2018-08-24T03:11:49.328Z,58.33
2018-08-24T03:16:58.854Z,69.10
2018-08-24T03:22:07.644Z,65.87
2018-08-24T03:27:17.218Z,60.73
2018-08-24T03:32:26.821Z,69.93
2018-08-24T03:37:36.251Z,61.57
2018-08-24T03:42:45.520Z,64.00
2018-08-24T03:47:54.479Z,64.63
2018-08-24T03:53:03.842Z,58.73
2018-08-24T03:58:12.649Z,52.63
2018-08-24T04:03:22.725Z,46.47
2018-08-24T04:08:31.612Z,45.13
2018-08-24T04:13:40.840Z,36.93
2018-08-24T04:18:50.256Z,37.87
2018-08-24T04:23:59.581Z,27.07
2018-08-24T04:29:08.524Z,24.30
2018-08-24T04:34:18.125Z,23.27
2018-08-24T04:39:26.808Z,23.53
2018-08-24T04:44:37.371Z,23.90
2018-08-24T04:49:46.942Z,23.13
2018-08-24T04:54:56.751Z,23.73
2018-08-24T05:00:06.772Z,24.53
2018-08-24T05:05:15.933Z,25.30
2018-08-24T05:10:25.221Z,25.17
2018-08-24T05:15:34.112Z,25.67
2018-08-24T05:20:43.199Z,26.67
2018-08-24T05:25:52.081Z,27.03
2018-08-24T05:31:01.514Z,25.03
2018-08-24T05:36:10.840Z,25.27
2018-08-24T05:41:20.528Z,25.47
2018-08-24T05:46:29.795Z,27.27
2018-08-24T05:51:39.190Z,26.20
2018-08-24T05:56:48.095Z,27.77
2018-08-24T06:01:57.747Z,25.50
2018-08-24T06:07:06.941Z,26.43
2018-08-24T06:12:16.295Z,28.87
2018-08-24T06:17:25.550Z,25.72
2018-08-24T06:22:34.687Z,25.87
2018-08-24T06:27:44.109Z,24.33
2018-08-24T06:32:53.519Z,23.53
2018-08-24T06:38:02.361Z,23.07
2018-08-24T06:43:11.279Z,22.50
2018-08-24T06:48:20.366Z,20.07
2018-08-24T06:53:32.545Z,21.17
2018-08-24T06:58:42.382Z,19.90
2018-08-24T07:03:57.280Z,19.90
2018-08-24T07:09:06.676Z,21.37
2018-08-24T07:14:15.884Z,17.47
2018-08-24T07:19:24.792Z,16.30
2018-08-24T07:24:33.473Z,13.53
2018-08-24T07:29:42.731Z,12.97
2018-08-24T07:34:51.829Z,12.30
2018-08-24T07:40:06.919Z,11.50
2018-08-24T07:45:16.466Z,13.03
2018-08-24T07:50:25.087Z,13.17
2018-08-24T07:55:34.694Z,14.40
2018-08-24T08:00:43.504Z,16.00
2018-08-24T08:05:52.490Z,15.70
2018-08-24T08:11:01.467Z,16.53
2018-08-24T08:16:10.559Z,19.07
2018-08-24T08:21:19.307Z,19.27
2018-08-24T08:26:28.435Z,20.10
2018-08-24T08:31:37.132Z,19.20
2018-08-24T08:36:46.531Z,16.67
2018-08-24T08:41:55.933Z,15.33
2018-08-24T08:47:05.610Z,15.63
2018-08-24T08:52:14.730Z,13.03
2018-08-24T08:57:24.154Z,10.70
2018-08-24T09:02:33.635Z,9.17
2018-08-24T09:07:42.853Z,10.10
2018-08-24T09:12:51.719Z,11.67
2018-08-24T09:18:00.695Z,10.00
2018-08-24T09:23:10.228Z,9.83
2018-08-24T09:28:19.740Z,10.23
2018-08-24T09:33:28.325Z,9.63
2018-08-24T09:38:37.188Z,8.03
2018-08-24T09:43:46.475Z,8.97
2018-08-24T09:48:55.637Z,9.73
2018-08-24T09:54:04.866Z,11.27
2018-08-24T09:59:14.368Z,9.10
2018-08-24T10:04:23.399Z,10.27
2018-08-24T10:09:32.501Z,11.60
2018-08-24T10:14:41.703Z,13.80
2018-08-24T10:19:50.759Z,14.97
2018-08-24T10:25:00.011Z,12.93
2018-08-24T10:30:10.234Z,9.60
2018-08-24T10:35:19.096Z,9.87
2018-08-24T10:40:27.597Z,5.37
2018-08-24T10:45:37.138Z,8.53
2018-08-24T10:50:46.040Z,6.40
2018-08-24T10:55:55.635Z,8.13
2018-08-24T11:01:05.547Z,6.67
2018-08-24T11:06:15.692Z,6.63
2018-08-24T11:11:24.837Z,7.13
2018-08-24T11:16:34.176Z,4.60
2018-08-24T11:21:43.377Z,6.00
2018-08-24T11:26:52.320Z,5.33
2018-08-24T11:32:01.725Z,5.37
2018-08-24T11:37:10.607Z,5.43
2018-08-24T11:42:19.594Z,5.73
2018-08-24T11:47:28.603Z,6.07
2018-08-24T11:52:37.937Z,5.83
2018-08-24T11:57:46.760Z,6.40
2018-08-24T12:02:55.827Z,7.73
2018-08-24T12:08:04.859Z,5.50
2018-08-24T12:13:14.043Z,6.60
2018-08-24T12:18:23.190Z,6.53
2018-08-24T12:23:32.127Z,6.77
2018-08-24T12:28:41.261Z,7.57
2018-08-24T12:33:50.545Z,7.20
2018-08-24T12:38:59.971Z,6.97
2018-08-24T12:44:15.429Z,7.53
2018-08-24T12:49:25.393Z,7.37
2018-08-24T12:54:35.240Z,9.30
2018-08-24T12:59:44.369Z,7.20
2018-08-24T13:04:53.621Z,6.93
2018-08-24T13:10:02.756Z,7.60
2018-08-24T13:15:12.520Z,7.57
2018-08-24T13:20:22.317Z,7.40
2018-08-24T13:25:31.616Z,8.33
2018-08-24T13:30:41.117Z,8.17
2018-08-24T13:35:50.608Z,7.70
2018-08-24T13:40:59.434Z,7.67
2018-08-24T13:46:08.855Z,8.00
2018-08-24T13:51:18.206Z,7.50
2018-08-24T13:56:27.355Z,9.17
2018-08-24T14:01:37.190Z,7.87
2018-08-24T14:06:46.744Z,11.00
2018-08-24T14:11:55.781Z,8.53
2018-08-24T14:17:05.388Z,8.47
2018-08-24T14:22:14.717Z,8.53
2018-08-24T14:27:24.195Z,8.43
2018-08-24T14:32:33.222Z,8.70
2018-08-24T14:37:41.994Z,8.43
2018-08-24T14:42:51.448Z,8.00
2018-08-24T14:48:00.326Z,10.70
2018-08-24T14:53:09.509Z,8.70
2018-08-24T14:58:19.433Z,8.43
2018-08-24T15:03:28.893Z,8.33
2018-08-24T15:08:37.622Z,7.33
2018-08-24T15:13:47.156Z,7.80
2018-08-24T15:18:56.070Z,7.47
2018-08-24T15:24:05.823Z,7.83
2018-08-24T15:29:15.129Z,8.73
2018-08-24T15:34:24.444Z,8.40
2018-08-24T15:39:33.681Z,8.03
2018-08-24T15:44:42.292Z,8.67
2018-08-24T15:49:51.382Z,8.30
2018-08-24T15:55:01.063Z,8.77
2018-08-24T16:00:10.541Z,7.77
2018-08-24T16:05:21.094Z,8.77
2018-08-24T16:10:29.825Z,9.90
2018-08-24T16:15:39.396Z,7.90
2018-08-24T16:20:49.002Z,9.67
2018-08-24T16:25:58.265Z,7.53
2018-08-24T16:31:07.723Z,7.87
2018-08-24T16:36:16.952Z,6.03
2018-08-24T16:41:25.878Z,7.13
2018-08-24T16:46:35.486Z,6.00
2018-08-24T16:51:45.063Z,5.03
2018-08-24T16:56:54.630Z,6.47
2018-08-24T17:02:04.044Z,3.90
2018-08-24T17:07:12.922Z,4.03
2018-08-24T17:12:22.851Z,4.90
2018-08-24T17:17:32.071Z,5.13
2018-08-24T17:22:41.081Z,4.77
2018-08-24T17:27:50.331Z,6.40
2018-08-24T17:32:59.706Z,3.90
2018-08-24T17:38:09.004Z,3.37
2018-08-24T17:43:18.434Z,3.57
2018-08-24T17:48:27.788Z,6.30
2018-08-24T17:53:36.991Z,4.70
2018-08-24T17:58:45.784Z,4.77
2018-08-24T18:03:54.809Z,3.47
2018-08-24T18:09:07.130Z,5.03
2018-08-24T18:14:16.380Z,5.17
2018-08-24T18:19:25.636Z,7.83
2018-08-24T18:24:34.384Z,3.97
2018-08-24T18:29:45.063Z,4.90
2018-08-24T18:34:54.909Z,3.20
2018-08-24T18:40:04.815Z,3.67
2018-08-24T18:45:13.624Z,4.37
2018-08-24T18:50:23.564Z,4.53
2018-08-24T18:55:32.740Z,6.43
2018-08-24T19:00:42.396Z,5.93
2018-08-24T19:05:51.909Z,5.47
2018-08-24T19:11:01.146Z,4.93
2018-08-24T19:16:10.784Z,4.83
2018-08-24T19:21:20.302Z,3.90
2018-08-24T19:26:30.039Z,3.67
2018-08-24T19:31:39.093Z,3.80
2018-08-24T19:36:48.122Z,4.60
2018-08-24T19:41:57.411Z,5.23
2018-08-24T19:47:06.491Z,3.80
2018-08-24T19:52:15.824Z,5.37
2018-08-24T19:57:24.847Z,4.33
2018-08-24T20:02:33.916Z,4.80
2018-08-24T20:07:43.124Z,3.53
2018-08-24T20:12:52.540Z,5.53
2018-08-24T20:18:01.246Z,4.77
2018-08-24T20:23:10.227Z,4.87
2018-08-24T20:28:19.285Z,4.50
2018-08-24T20:33:28.722Z,4.53
2018-08-24T20:38:37.836Z,6.57
2018-08-24T20:43:46.956Z,3.77
2018-08-24T20:48:56.220Z,4.83
2018-08-24T20:54:05.562Z,6.43
2018-08-24T20:59:14.977Z,5.27
2018-08-24T21:04:24.700Z,3.80
2018-08-24T21:09:33.839Z,3.77
2018-08-24T21:14:42.968Z,6.10
2018-08-24T21:19:52.025Z,3.47
2018-08-24T21:25:01.358Z,4.97
2018-08-24T21:30:10.418Z,5.60
2018-08-24T21:35:19.943Z,4.30
2018-08-24T21:40:28.802Z,5.70
2018-08-24T21:45:38.012Z,3.63
2018-08-24T21:50:47.477Z,4.77
2018-08-24T21:55:56.639Z,3.70
2018-08-24T22:01:05.820Z,4.70
2018-08-24T22:06:15.061Z,5.00
2018-08-24T22:11:24.272Z,4.43
2018-08-24T22:16:33.964Z,4.33
2018-08-24T22:21:43.665Z,4.70
2018-08-24T22:26:52.985Z,8.27
2018-08-24T22:32:02.305Z,9.97
2018-08-24T22:37:11.621Z,5.37
2018-08-24T22:42:20.969Z,4.67
2018-08-24T22:47:30.036Z,5.33
2018-08-24T22:52:39.612Z,4.07
2018-08-24T22:57:48.475Z,6.70
2018-08-24T23:02:57.809Z,5.37
2018-08-24T23:08:06.839Z,5.07
2018-08-24T23:13:15.863Z,5.77
2018-08-24T23:18:25.173Z,4.67
2018-08-24T23:23:34.459Z,4.23
2018-08-24T23:28:43.548Z,3.87
2018-08-24T23:33:52.871Z,5.23
2018-08-24T23:39:02.079Z,4.83
2018-08-24T23:44:11.831Z,4.20
2018-08-24T23:49:22.480Z,4.97
2018-08-24T23:54:31.249Z,6.13
2018-08-24T23:59:40.422Z,7.47
